sensor_id;sensor_type;location;lat;lon;timestamp;P1;durP1;ratioP1;P2;durP2;ratioP2
48613;SDS011;34408;51.426;5.444;2023-04-09T00:00:19;33.88;;;24.27;;
48613;SDS011;34408;51.426;5.444;2023-04-09T00:02:48;38.33;;;26.15;;
48613;SDS011;34408;51.426;5.444;2023-04-09T00:05:16;34.53;;;25.00;;
48613;SDS011;34408;51.426;5.444;2023-04-09T00:07:44;33.35;;;24.67;;
48613;SDS011;34408;51.426;5.444;2023-04-09T00:10:11;33.28;;;24.30;;
48613;SDS011;34408;51.426;5.444;2023-04-09T00:12:39;31.83;;;24.10;;
48613;SDS011;34408;51.426;5.444;2023-04-09T00:15:07;40.03;;;26.75;;
48613;SDS011;34408;51.426;5.444;2023-04-09T00:17:46;38.05;;;27.65;;
48613;SDS011;34408;51.426;5.444;2023-04-09T00:20:15;33.72;;;25.38;;
48613;SDS011;34408;51.426;5.444;2023-04-09T00:22:42;37.67;;;27.20;;
48613;SDS011;34408;51.426;5.444;2023-04-09T00:25:10;37.92;;;27.45;;
48613;SDS011;34408;51.426;5.444;2023-04-09T00:27:38;37.03;;;28.48;;
48613;SDS011;34408;51.426;5.444;2023-04-09T00:30:06;35.63;;;25.88;;
48613;SDS011;34408;51.426;5.444;2023-04-09T00:32:36;40.10;;;27.83;;
48613;SDS011;34408;51.426;5.444;2023-04-09T00:35:06;40.13;;;29.45;;
48613;SDS011;34408;51.426;5.444;2023-04-09T00:37:34;39.17;;;27.77;;
48613;SDS011;34408;51.426;5.444;2023-04-09T00:40:02;39.72;;;28.60;;
48613;SDS011;34408;51.426;5.444;2023-04-09T00:42:31;41.40;;;29.48;;
48613;SDS011;34408;51.426;5.444;2023-04-09T00:44:59;36.55;;;27.13;;
48613;SDS011;34408;51.426;5.444;2023-04-09T00:47:27;36.95;;;27.45;;
48613;SDS011;34408;51.426;5.444;2023-04-09T00:49:56;36.35;;;27.25;;
48613;SDS011;34408;51.426;5.444;2023-04-09T00:52:25;37.47;;;26.83;;
48613;SDS011;34408;51.426;5.444;2023-04-09T00:54:55;34.45;;;25.77;;
48613;SDS011;34408;51.426;5.444;2023-04-09T00:57:25;35.67;;;26.40;;
48613;SDS011;34408;51.426;5.444;2023-04-09T00:59:54;35.05;;;25.48;;
48613;SDS011;34408;51.426;5.444;2023-04-09T01:02:21;34.10;;;25.17;;
48613;SDS011;34408;51.426;5.444;2023-04-09T01:04:49;34.13;;;24.60;;
48613;SDS011;34408;51.426;5.444;2023-04-09T01:07:19;33.13;;;25.02;;
48613;SDS011;34408;51.426;5.444;2023-04-09T01:09:56;34.28;;;25.75;;
48613;SDS011;34408;51.426;5.444;2023-04-09T01:12:31;35.55;;;25.15;;
48613;SDS011;34408;51.426;5.444;2023-04-09T01:15:04;34.30;;;24.83;;
48613;SDS011;34408;51.426;5.444;2023-04-09T01:17:33;35.13;;;24.20;;
48613;SDS011;34408;51.426;5.444;2023-04-09T01:20:11;31.15;;;23.58;;
48613;SDS011;34408;51.426;5.444;2023-04-09T01:22:47;35.85;;;25.17;;
48613;SDS011;34408;51.426;5.444;2023-04-09T01:25:28;32.03;;;24.00;;
48613;SDS011;34408;51.426;5.444;2023-04-09T01:28:16;32.35;;;23.08;;
48613;SDS011;34408;51.426;5.444;2023-04-09T01:30:47;32.15;;;24.38;;
48613;SDS011;34408;51.426;5.444;2023-04-09T01:33:17;30.30;;;23.13;;
48613;SDS011;34408;51.426;5.444;2023-04-09T01:35:46;32.63;;;22.40;;
48613;SDS011;34408;51.426;5.444;2023-04-09T01:38:17;30.75;;;22.30;;
48613;SDS011;34408;51.426;5.444;2023-04-09T01:40:46;27.92;;;21.00;;
48613;SDS011;34408;51.426;5.444;2023-04-09T01:43:14;28.98;;;22.48;;
48613;SDS011;34408;51.426;5.444;2023-04-09T01:45:46;29.88;;;21.85;;
48613;SDS011;34408;51.426;5.444;2023-04-09T01:48:14;34.53;;;21.92;;
48613;SDS011;34408;51.426;5.444;2023-04-09T01:50:43;29.50;;;22.35;;
48613;SDS011;34408;51.426;5.444;2023-04-09T01:53:11;33.00;;;22.90;;
48613;SDS011;34408;51.426;5.444;2023-04-09T01:55:39;31.75;;;21.80;;
48613;SDS011;34408;51.426;5.444;2023-04-09T01:58:07;31.25;;;22.17;;
48613;SDS011;34408;51.426;5.444;2023-04-09T02:00:37;29.98;;;21.92;;
48613;SDS011;34408;51.426;5.444;2023-04-09T02:03:07;33.15;;;22.73;;
48613;SDS011;34408;51.426;5.444;2023-04-09T02:05:39;31.85;;;22.45;;
48613;SDS011;34408;51.426;5.444;2023-04-09T02:08:11;31.00;;;22.10;;
48613;SDS011;34408;51.426;5.444;2023-04-09T02:10:43;32.00;;;23.48;;
48613;SDS011;34408;51.426;5.444;2023-04-09T02:13:18;28.55;;;21.33;;
48613;SDS011;34408;51.426;5.444;2023-04-09T02:15:48;35.72;;;24.85;;
48613;SDS011;34408;51.426;5.444;2023-04-09T02:18:21;34.00;;;23.55;;
48613;SDS011;34408;51.426;5.444;2023-04-09T02:20:50;33.53;;;23.45;;
48613;SDS011;34408;51.426;5.444;2023-04-09T02:23:19;32.60;;;23.88;;
48613;SDS011;34408;51.426;5.444;2023-04-09T02:25:47;29.90;;;22.27;;
48613;SDS011;34408;51.426;5.444;2023-04-09T02:28:14;30.42;;;22.75;;
48613;SDS011;34408;51.426;5.444;2023-04-09T02:30:42;33.08;;;23.08;;
48613;SDS011;34408;51.426;5.444;2023-04-09T02:33:12;33.88;;;22.75;;
48613;SDS011;34408;51.426;5.444;2023-04-09T02:35:39;36.25;;;23.38;;
48613;SDS011;34408;51.426;5.444;2023-04-09T02:38:07;35.78;;;24.55;;
48613;SDS011;34408;51.426;5.444;2023-04-09T02:40:38;34.40;;;24.60;;
48613;SDS011;34408;51.426;5.444;2023-04-09T02:43:07;33.72;;;24.02;;
48613;SDS011;34408;51.426;5.444;2023-04-09T02:45:35;32.15;;;23.35;;
48613;SDS011;34408;51.426;5.444;2023-04-09T02:48:03;34.47;;;24.33;;
48613;SDS011;34408;51.426;5.444;2023-04-09T02:50:32;34.78;;;23.50;;
48613;SDS011;34408;51.426;5.444;2023-04-09T02:53:00;32.63;;;22.88;;
48613;SDS011;34408;51.426;5.444;2023-04-09T02:55:28;30.70;;;23.33;;
48613;SDS011;34408;51.426;5.444;2023-04-09T02:57:56;32.67;;;22.45;;
48613;SDS011;34408;51.426;5.444;2023-04-09T03:00:23;31.65;;;23.67;;
48613;SDS011;34408;51.426;5.444;2023-04-09T03:02:51;33.22;;;22.88;;
48613;SDS011;34408;51.426;5.444;2023-04-09T03:05:19;31.58;;;22.63;;
48613;SDS011;34408;51.426;5.444;2023-04-09T03:07:48;37.38;;;24.65;;
48613;SDS011;34408;51.426;5.444;2023-04-09T03:10:16;33.42;;;23.08;;
48613;SDS011;34408;51.426;5.444;2023-04-09T03:12:44;33.13;;;22.55;;
48613;SDS011;34408;51.426;5.444;2023-04-09T03:15:13;33.17;;;23.73;;
48613;SDS011;34408;51.426;5.444;2023-04-09T03:17:41;33.17;;;23.45;;
48613;SDS011;34408;51.426;5.444;2023-04-09T03:20:08;34.65;;;24.88;;
48613;SDS011;34408;51.426;5.444;2023-04-09T03:22:36;33.15;;;23.90;;
48613;SDS011;34408;51.426;5.444;2023-04-09T03:25:06;34.33;;;23.38;;
48613;SDS011;34408;51.426;5.444;2023-04-09T03:27:35;31.75;;;23.27;;
48613;SDS011;34408;51.426;5.444;2023-04-09T03:30:03;36.80;;;24.05;;
48613;SDS011;34408;51.426;5.444;2023-04-09T03:32:31;34.15;;;24.00;;
48613;SDS011;34408;51.426;5.444;2023-04-09T03:34:59;34.85;;;23.67;;
48613;SDS011;34408;51.426;5.444;2023-04-09T03:37:27;35.25;;;21.95;;
48613;SDS011;34408;51.426;5.444;2023-04-09T03:39:54;34.17;;;24.33;;
48613;SDS011;34408;51.426;5.444;2023-04-09T03:42:23;33.83;;;23.65;;
48613;SDS011;34408;51.426;5.444;2023-04-09T03:44:52;32.13;;;23.45;;
48613;SDS011;34408;51.426;5.444;2023-04-09T03:47:20;33.10;;;23.60;;
48613;SDS011;34408;51.426;5.444;2023-04-09T03:49:47;34.05;;;22.88;;
48613;SDS011;34408;51.426;5.444;2023-04-09T03:52:15;32.83;;;23.65;;
48613;SDS011;34408;51.426;5.444;2023-04-09T03:54:43;31.75;;;23.25;;
48613;SDS011;34408;51.426;5.444;2023-04-09T03:57:10;32.97;;;23.80;;
48613;SDS011;34408;51.426;5.444;2023-04-09T03:59:40;34.03;;;23.65;;
48613;SDS011;34408;51.426;5.444;2023-04-09T04:02:07;32.47;;;23.23;;
48613;SDS011;34408;51.426;5.444;2023-04-09T04:04:35;35.58;;;24.13;;
48613;SDS011;34408;51.426;5.444;2023-04-09T04:07:03;37.72;;;23.67;;
48613;SDS011;34408;51.426;5.444;2023-04-09T04:09:31;31.60;;;22.58;;
48613;SDS011;34408;51.426;5.444;2023-04-09T04:11:59;32.78;;;22.92;;
48613;SDS011;34408;51.426;5.444;2023-04-09T04:14:27;34.95;;;24.05;;
48613;SDS011;34408;51.426;5.444;2023-04-09T04:16:56;32.65;;;22.45;;
48613;SDS011;34408;51.426;5.444;2023-04-09T04:19:24;33.28;;;23.10;;
48613;SDS011;34408;51.426;5.444;2023-04-09T04:21:52;32.50;;;22.95;;
48613;SDS011;34408;51.426;5.444;2023-04-09T04:24:19;33.20;;;23.02;;
48613;SDS011;34408;51.426;5.444;2023-04-09T04:26:47;34.67;;;23.35;;
48613;SDS011;34408;51.426;5.444;2023-04-09T04:29:15;31.80;;;22.98;;
48613;SDS011;34408;51.426;5.444;2023-04-09T04:31:43;35.03;;;23.25;;
48613;SDS011;34408;51.426;5.444;2023-04-09T04:34:12;33.00;;;23.83;;
48613;SDS011;34408;51.426;5.444;2023-04-09T04:36:40;31.75;;;22.88;;
48613;SDS011;34408;51.426;5.444;2023-04-09T04:39:07;32.85;;;22.35;;
48613;SDS011;34408;51.426;5.444;2023-04-09T04:41:35;30.70;;;22.63;;
48613;SDS011;34408;51.426;5.444;2023-04-09T04:44:03;33.47;;;22.98;;
48613;SDS011;34408;51.426;5.444;2023-04-09T04:46:31;30.95;;;22.92;;
48613;SDS011;34408;51.426;5.444;2023-04-09T04:48:58;33.60;;;22.52;;
48613;SDS011;34408;51.426;5.444;2023-04-09T04:51:27;36.28;;;22.33;;
48613;SDS011;34408;51.426;5.444;2023-04-09T04:53:57;32.72;;;21.75;;
48613;SDS011;34408;51.426;5.444;2023-04-09T04:56:24;33.70;;;23.77;;
48613;SDS011;34408;51.426;5.444;2023-04-09T04:58:52;37.50;;;23.30;;
48613;SDS011;34408;51.426;5.444;2023-04-09T05:01:20;33.25;;;22.45;;
48613;SDS011;34408;51.426;5.444;2023-04-09T05:03:47;33.63;;;22.60;;
48613;SDS011;34408;51.426;5.444;2023-04-09T05:06:16;31.50;;;21.45;;
48613;SDS011;34408;51.426;5.444;2023-04-09T05:08:45;30.00;;;21.55;;
48613;SDS011;34408;51.426;5.444;2023-04-09T05:11:12;31.20;;;21.10;;
48613;SDS011;34408;51.426;5.444;2023-04-09T05:13:42;31.75;;;22.35;;
48613;SDS011;34408;51.426;5.444;2023-04-09T05:16:14;31.35;;;20.92;;
48613;SDS011;34408;51.426;5.444;2023-04-09T05:18:43;32.35;;;21.08;;
48613;SDS011;34408;51.426;5.444;2023-04-09T05:21:10;31.58;;;21.73;;
48613;SDS011;34408;51.426;5.444;2023-04-09T05:23:38;31.52;;;21.30;;
48613;SDS011;34408;51.426;5.444;2023-04-09T05:26:08;30.88;;;21.33;;
48613;SDS011;34408;51.426;5.444;2023-04-09T05:28:35;38.00;;;21.90;;
48613;SDS011;34408;51.426;5.444;2023-04-09T05:31:03;29.73;;;20.45;;
48613;SDS011;34408;51.426;5.444;2023-04-09T05:33:36;32.95;;;20.23;;
48613;SDS011;34408;51.426;5.444;2023-04-09T05:36:04;32.22;;;20.88;;
48613;SDS011;34408;51.426;5.444;2023-04-09T05:38:32;29.52;;;20.40;;
48613;SDS011;34408;51.426;5.444;2023-04-09T05:41:00;30.13;;;21.25;;
48613;SDS011;34408;51.426;5.444;2023-04-09T05:43:29;27.75;;;19.60;;
48613;SDS011;34408;51.426;5.444;2023-04-09T05:45:57;27.38;;;19.35;;
48613;SDS011;34408;51.426;5.444;2023-04-09T05:48:25;28.08;;;19.70;;
48613;SDS011;34408;51.426;5.444;2023-04-09T05:50:53;31.13;;;19.65;;
48613;SDS011;34408;51.426;5.444;2023-04-09T05:53:21;30.25;;;20.02;;
48613;SDS011;34408;51.426;5.444;2023-04-09T05:55:49;32.17;;;21.10;;
48613;SDS011;34408;51.426;5.444;2023-04-09T05:58:17;31.02;;;20.90;;
48613;SDS011;34408;51.426;5.444;2023-04-09T06:00:46;29.80;;;20.98;;
48613;SDS011;34408;51.426;5.444;2023-04-09T06:03:16;28.83;;;19.85;;
48613;SDS011;34408;51.426;5.444;2023-04-09T06:05:44;31.63;;;19.05;;
48613;SDS011;34408;51.426;5.444;2023-04-09T06:08:13;29.88;;;20.38;;
48613;SDS011;34408;51.426;5.444;2023-04-09T06:10:41;30.08;;;19.75;;
48613;SDS011;34408;51.426;5.444;2023-04-09T06:13:09;30.83;;;20.83;;
48613;SDS011;34408;51.426;5.444;2023-04-09T06:15:37;31.30;;;19.30;;
48613;SDS011;34408;51.426;5.444;2023-04-09T06:18:07;29.88;;;19.77;;
48613;SDS011;34408;51.426;5.444;2023-04-09T06:20:35;30.58;;;19.55;;
48613;SDS011;34408;51.426;5.444;2023-04-09T06:23:03;30.90;;;20.85;;
48613;SDS011;34408;51.426;5.444;2023-04-09T06:25:31;31.30;;;19.52;;
48613;SDS011;34408;51.426;5.444;2023-04-09T06:27:59;29.00;;;19.85;;
48613;SDS011;34408;51.426;5.444;2023-04-09T06:30:26;29.70;;;19.50;;
48613;SDS011;34408;51.426;5.444;2023-04-09T06:32:54;32.58;;;19.40;;
48613;SDS011;34408;51.426;5.444;2023-04-09T06:35:23;30.25;;;18.88;;
48613;SDS011;34408;51.426;5.444;2023-04-09T06:37:51;32.63;;;19.30;;
48613;SDS011;34408;51.426;5.444;2023-04-09T06:40:19;28.38;;;18.77;;
48613;SDS011;34408;51.426;5.444;2023-04-09T06:42:48;27.10;;;17.77;;
48613;SDS011;34408;51.426;5.444;2023-04-09T06:45:16;32.15;;;19.55;;
48613;SDS011;34408;51.426;5.444;2023-04-09T06:47:44;30.90;;;18.25;;
48613;SDS011;34408;51.426;5.444;2023-04-09T06:50:12;29.15;;;18.48;;
48613;SDS011;34408;51.426;5.444;2023-04-09T06:52:41;26.42;;;18.35;;
48613;SDS011;34408;51.426;5.444;2023-04-09T06:55:09;29.55;;;19.08;;
48613;SDS011;34408;51.426;5.444;2023-04-09T06:57:36;30.77;;;19.67;;
48613;SDS011;34408;51.426;5.444;2023-04-09T07:00:05;29.77;;;19.73;;
48613;SDS011;34408;51.426;5.444;2023-04-09T07:02:33;28.85;;;19.25;;
48613;SDS011;34408;51.426;5.444;2023-04-09T07:05:02;27.63;;;18.23;;
48613;SDS011;34408;51.426;5.444;2023-04-09T07:07:30;28.08;;;19.10;;
48613;SDS011;34408;51.426;5.444;2023-04-09T07:09:59;30.60;;;18.45;;
48613;SDS011;34408;51.426;5.444;2023-04-09T07:12:27;28.95;;;19.48;;
48613;SDS011;34408;51.426;5.444;2023-04-09T07:14:56;29.50;;;19.10;;
48613;SDS011;34408;51.426;5.444;2023-04-09T07:17:24;26.73;;;18.42;;
48613;SDS011;34408;51.426;5.444;2023-04-09T07:19:52;29.10;;;18.15;;
48613;SDS011;34408;51.426;5.444;2023-04-09T07:22:20;29.08;;;19.48;;
48613;SDS011;34408;51.426;5.444;2023-04-09T07:24:48;26.13;;;18.30;;
48613;SDS011;34408;51.426;5.444;2023-04-09T07:27:21;27.75;;;18.70;;
48613;SDS011;34408;51.426;5.444;2023-04-09T07:29:52;25.30;;;18.17;;
48613;SDS011;34408;51.426;5.444;2023-04-09T07:32:21;25.17;;;18.13;;
48613;SDS011;34408;51.426;5.444;2023-04-09T07:34:50;26.55;;;19.02;;
48613;SDS011;34408;51.426;5.444;2023-04-09T07:37:18;29.17;;;18.40;;
48613;SDS011;34408;51.426;5.444;2023-04-09T07:39:46;27.38;;;18.83;;
48613;SDS011;34408;51.426;5.444;2023-04-09T07:42:13;28.67;;;21.00;;
48613;SDS011;34408;51.426;5.444;2023-04-09T07:44:43;31.13;;;22.27;;
48613;SDS011;34408;51.426;5.444;2023-04-09T07:47:10;33.72;;;22.67;;
48613;SDS011;34408;51.426;5.444;2023-04-09T07:49:38;35.70;;;23.90;;
48613;SDS011;34408;51.426;5.444;2023-04-09T07:52:06;35.17;;;24.75;;
48613;SDS011;34408;51.426;5.444;2023-04-09T07:54:34;38.13;;;26.30;;
48613;SDS011;34408;51.426;5.444;2023-04-09T07:57:02;36.90;;;24.80;;
48613;SDS011;34408;51.426;5.444;2023-04-09T07:59:30;35.03;;;24.35;;
48613;SDS011;34408;51.426;5.444;2023-04-09T08:01:59;38.53;;;25.10;;
48613;SDS011;34408;51.426;5.444;2023-04-09T08:04:27;35.67;;;23.52;;
48613;SDS011;34408;51.426;5.444;2023-04-09T08:06:55;35.70;;;22.60;;
48613;SDS011;34408;51.426;5.444;2023-04-09T08:09:23;34.33;;;23.52;;
48613;SDS011;34408;51.426;5.444;2023-04-09T08:11:51;34.78;;;23.00;;
48613;SDS011;34408;51.426;5.444;2023-04-09T08:14:18;34.58;;;22.60;;
48613;SDS011;34408;51.426;5.444;2023-04-09T08:16:46;34.88;;;22.83;;
48613;SDS011;34408;51.426;5.444;2023-04-09T08:19:17;36.78;;;24.38;;
48613;SDS011;34408;51.426;5.444;2023-04-09T08:21:48;33.22;;;22.90;;
48613;SDS011;34408;51.426;5.444;2023-04-09T08:24:17;32.38;;;22.38;;
48613;SDS011;34408;51.426;5.444;2023-04-09T08:26:45;30.80;;;22.58;;
48613;SDS011;34408;51.426;5.444;2023-04-09T08:29:13;31.75;;;22.73;;
48613;SDS011;34408;51.426;5.444;2023-04-09T08:31:41;33.50;;;21.80;;
48613;SDS011;34408;51.426;5.444;2023-04-09T08:34:09;34.78;;;22.13;;
48613;SDS011;34408;51.426;5.444;2023-04-09T08:36:39;35.97;;;21.55;;
48613;SDS011;34408;51.426;5.444;2023-04-09T08:39:07;34.83;;;22.98;;
48613;SDS011;34408;51.426;5.444;2023-04-09T08:41:35;32.33;;;22.02;;
48613;SDS011;34408;51.426;5.444;2023-04-09T08:44:08;31.05;;;21.92;;
48613;SDS011;34408;51.426;5.444;2023-04-09T08:46:36;32.72;;;22.42;;
48613;SDS011;34408;51.426;5.444;2023-04-09T08:49:04;32.22;;;22.33;;
48613;SDS011;34408;51.426;5.444;2023-04-09T08:51:32;28.10;;;20.95;;
48613;SDS011;34408;51.426;5.444;2023-04-09T08:54:03;35.55;;;21.73;;
48613;SDS011;34408;51.426;5.444;2023-04-09T08:56:31;30.25;;;21.63;;
48613;SDS011;34408;51.426;5.444;2023-04-09T08:58:59;30.65;;;21.70;;
48613;SDS011;34408;51.426;5.444;2023-04-09T09:01:28;30.73;;;21.77;;
48613;SDS011;34408;51.426;5.444;2023-04-09T09:03:58;30.48;;;21.88;;
48613;SDS011;34408;51.426;5.444;2023-04-09T09:06:27;29.13;;;21.65;;
48613;SDS011;34408;51.426;5.444;2023-04-09T09:08:58;29.50;;;21.10;;
48613;SDS011;34408;51.426;5.444;2023-04-09T09:11:29;27.52;;;20.25;;
48613;SDS011;34408;51.426;5.444;2023-04-09T09:13:57;30.85;;;20.98;;
48613;SDS011;34408;51.426;5.444;2023-04-09T09:16:25;34.78;;;22.88;;
48613;SDS011;34408;51.426;5.444;2023-04-09T09:18:53;37.28;;;23.85;;
48613;SDS011;34408;51.426;5.444;2023-04-09T09:21:24;33.33;;;23.63;;
48613;SDS011;34408;51.426;5.444;2023-04-09T09:23:53;32.85;;;23.25;;
48613;SDS011;34408;51.426;5.444;2023-04-09T09:26:23;35.03;;;23.88;;
48613;SDS011;34408;51.426;5.444;2023-04-09T09:28:54;31.15;;;23.30;;
48613;SDS011;34408;51.426;5.444;2023-04-09T09:31:24;33.72;;;24.95;;
48613;SDS011;34408;51.426;5.444;2023-04-09T09:33:52;36.75;;;24.58;;
48613;SDS011;34408;51.426;5.444;2023-04-09T09:36:30;34.80;;;23.48;;
48613;SDS011;34408;51.426;5.444;2023-04-09T09:38:58;36.75;;;24.38;;
48613;SDS011;34408;51.426;5.444;2023-04-09T09:41:30;33.33;;;23.13;;
48613;SDS011;34408;51.426;5.444;2023-04-09T09:43:58;34.05;;;22.88;;
48613;SDS011;34408;51.426;5.444;2023-04-09T09:46:26;33.20;;;22.33;;
48613;SDS011;34408;51.426;5.444;2023-04-09T09:48:54;35.55;;;23.23;;
48613;SDS011;34408;51.426;5.444;2023-04-09T09:51:24;31.15;;;21.02;;
48613;SDS011;34408;51.426;5.444;2023-04-09T09:53:54;32.15;;;21.23;;
48613;SDS011;34408;51.426;5.444;2023-04-09T09:56:23;28.92;;;20.80;;
48613;SDS011;34408;51.426;5.444;2023-04-09T09:59:03;29.65;;;20.13;;
48613;SDS011;34408;51.426;5.444;2023-04-09T10:01:33;30.10;;;21.75;;
48613;SDS011;34408;51.426;5.444;2023-04-09T10:04:03;27.38;;;19.58;;
48613;SDS011;34408;51.426;5.444;2023-04-09T10:06:32;29.08;;;18.63;;
48613;SDS011;34408;51.426;5.444;2023-04-09T10:09:02;26.85;;;19.30;;
48613;SDS011;34408;51.426;5.444;2023-04-09T10:11:32;29.90;;;20.42;;
48613;SDS011;34408;51.426;5.444;2023-04-09T10:14:03;28.65;;;19.27;;
48613;SDS011;34408;51.426;5.444;2023-04-09T10:16:31;25.25;;;18.08;;
48613;SDS011;34408;51.426;5.444;2023-04-09T10:19:00;27.23;;;18.55;;
48613;SDS011;34408;51.426;5.444;2023-04-09T10:21:31;25.45;;;18.00;;
48613;SDS011;34408;51.426;5.444;2023-04-09T10:24:07;21.58;;;16.23;;
48613;SDS011;34408;51.426;5.444;2023-04-09T10:26:39;25.10;;;16.90;;
48613;SDS011;34408;51.426;5.444;2023-04-09T10:29:09;22.58;;;16.77;;
48613;SDS011;34408;51.426;5.444;2023-04-09T10:31:52;24.92;;;17.13;;
48613;SDS011;34408;51.426;5.444;2023-04-09T10:34:22;23.35;;;16.70;;
48613;SDS011;34408;51.426;5.444;2023-04-09T10:36:54;21.67;;;17.02;;
48613;SDS011;34408;51.426;5.444;2023-04-09T10:39:25;22.63;;;15.85;;
48613;SDS011;34408;51.426;5.444;2023-04-09T10:41:53;21.25;;;15.13;;
48613;SDS011;34408;51.426;5.444;2023-04-09T10:44:24;21.85;;;15.50;;
48613;SDS011;34408;51.426;5.444;2023-04-09T10:46:53;25.73;;;14.82;;
48613;SDS011;34408;51.426;5.444;2023-04-09T10:49:21;21.25;;;14.57;;
48613;SDS011;34408;51.426;5.444;2023-04-09T10:51:51;19.35;;;13.25;;
48613;SDS011;34408;51.426;5.444;2023-04-09T10:57:14;19.42;;;13.82;;
48613;SDS011;34408;51.426;5.444;2023-04-09T10:59:45;21.38;;;13.65;;
48613;SDS011;34408;51.426;5.444;2023-04-09T11:02:33;19.35;;;13.90;;
48613;SDS011;34408;51.426;5.444;2023-04-09T11:05:17;20.05;;;14.07;;
48613;SDS011;34408;51.426;5.444;2023-04-09T11:07:51;20.20;;;13.60;;
48613;SDS011;34408;51.426;5.444;2023-04-09T11:10:21;22.70;;;14.02;;
48613;SDS011;34408;51.426;5.444;2023-04-09T11:12:48;20.40;;;13.38;;
48613;SDS011;34408;51.426;5.444;2023-04-09T11:15:18;18.20;;;12.60;;
48613;SDS011;34408;51.426;5.444;2023-04-09T11:17:46;16.95;;;13.27;;
48613;SDS011;34408;51.426;5.444;2023-04-09T11:20:15;18.80;;;13.38;;
48613;SDS011;34408;51.426;5.444;2023-04-09T11:22:46;18.88;;;12.55;;
48613;SDS011;34408;51.426;5.444;2023-04-09T11:25:20;18.75;;;12.05;;
48613;SDS011;34408;51.426;5.444;2023-04-09T11:27:49;19.88;;;11.80;;
48613;SDS011;34408;51.426;5.444;2023-04-09T11:30:19;14.35;;;11.00;;
48613;SDS011;34408;51.426;5.444;2023-04-09T11:32:47;18.92;;;11.52;;
48613;SDS011;34408;51.426;5.444;2023-04-09T11:35:16;18.08;;;10.77;;
48613;SDS011;34408;51.426;5.444;2023-04-09T11:37:44;18.17;;;11.57;;
48613;SDS011;34408;51.426;5.444;2023-04-09T11:40:14;17.45;;;10.80;;
48613;SDS011;34408;51.426;5.444;2023-04-09T11:42:43;17.17;;;10.93;;
48613;SDS011;34408;51.426;5.444;2023-04-09T11:45:11;17.88;;;10.77;;
48613;SDS011;34408;51.426;5.444;2023-04-09T11:47:41;15.75;;;9.40;;
48613;SDS011;34408;51.426;5.444;2023-04-09T11:50:10;13.43;;;9.35;;
48613;SDS011;34408;51.426;5.444;2023-04-09T11:52:39;12.25;;;8.52;;
48613;SDS011;34408;51.426;5.444;2023-04-09T11:55:08;15.02;;;9.02;;
48613;SDS011;34408;51.426;5.444;2023-04-09T11:57:38;16.05;;;8.88;;
48613;SDS011;34408;51.426;5.444;2023-04-09T12:00:09;13.20;;;8.40;;
48613;SDS011;34408;51.426;5.444;2023-04-09T12:02:39;16.33;;;8.13;;
48613;SDS011;34408;51.426;5.444;2023-04-09T12:05:10;15.20;;;8.18;;
48613;SDS011;34408;51.426;5.444;2023-04-09T12:07:39;16.58;;;7.80;;
48613;SDS011;34408;51.426;5.444;2023-04-09T12:10:17;11.52;;;7.28;;
48613;SDS011;34408;51.426;5.444;2023-04-09T12:12:45;13.07;;;8.50;;
48613;SDS011;34408;51.426;5.444;2023-04-09T12:15:20;11.23;;;7.85;;
48613;SDS011;34408;51.426;5.444;2023-04-09T12:17:50;13.70;;;9.32;;
48613;SDS011;34408;51.426;5.444;2023-04-09T12:20:27;16.52;;;8.85;;
48613;SDS011;34408;51.426;5.444;2023-04-09T12:22:56;10.85;;;7.55;;
48613;SDS011;34408;51.426;5.444;2023-04-09T12:25:25;11.05;;;7.63;;
48613;SDS011;34408;51.426;5.444;2023-04-09T12:27:53;11.73;;;8.02;;
48613;SDS011;34408;51.426;5.444;2023-04-09T12:30:22;12.88;;;7.68;;
48613;SDS011;34408;51.426;5.444;2023-04-09T12:32:51;10.68;;;7.35;;
48613;SDS011;34408;51.426;5.444;2023-04-09T12:35:19;14.38;;;8.40;;
48613;SDS011;34408;51.426;5.444;2023-04-09T12:37:48;15.45;;;8.43;;
48613;SDS011;34408;51.426;5.444;2023-04-09T12:40:16;12.85;;;7.60;;
48613;SDS011;34408;51.426;5.444;2023-04-09T12:42:45;13.88;;;9.23;;
48613;SDS011;34408;51.426;5.444;2023-04-09T12:45:15;12.30;;;7.97;;
48613;SDS011;34408;51.426;5.444;2023-04-09T12:47:44;11.93;;;8.15;;
48613;SDS011;34408;51.426;5.444;2023-04-09T12:50:14;10.40;;;7.60;;
48613;SDS011;34408;51.426;5.444;2023-04-09T12:52:42;12.10;;;8.20;;
48613;SDS011;34408;51.426;5.444;2023-04-09T12:55:10;15.07;;;7.72;;
48613;SDS011;34408;51.426;5.444;2023-04-09T12:57:40;8.73;;;6.47;;
48613;SDS011;34408;51.426;5.444;2023-04-09T13:00:09;9.80;;;7.68;;
48613;SDS011;34408;51.426;5.444;2023-04-09T13:02:38;11.40;;;6.95;;
48613;SDS011;34408;51.426;5.444;2023-04-09T13:05:06;13.10;;;8.13;;
48613;SDS011;34408;51.426;5.444;2023-04-09T13:07:35;10.57;;;7.25;;
48613;SDS011;34408;51.426;5.444;2023-04-09T13:10:05;12.77;;;7.60;;
48613;SDS011;34408;51.426;5.444;2023-04-09T13:12:33;9.93;;;7.22;;
48613;SDS011;34408;51.426;5.444;2023-04-09T13:15:01;11.90;;;6.78;;
48613;SDS011;34408;51.426;5.444;2023-04-09T13:17:29;10.52;;;7.10;;
48613;SDS011;34408;51.426;5.444;2023-04-09T13:19:57;8.95;;;6.20;;
48613;SDS011;34408;51.426;5.444;2023-04-09T13:22:25;12.73;;;7.05;;
48613;SDS011;34408;51.426;5.444;2023-04-09T13:24:54;9.23;;;7.22;;
48613;SDS011;34408;51.426;5.444;2023-04-09T13:27:22;14.93;;;7.78;;
48613;SDS011;34408;51.426;5.444;2023-04-09T13:29:50;9.95;;;7.25;;
48613;SDS011;34408;51.426;5.444;2023-04-09T13:32:18;9.55;;;6.88;;
48613;SDS011;34408;51.426;5.444;2023-04-09T13:34:47;12.23;;;7.38;;
48613;SDS011;34408;51.426;5.444;2023-04-09T13:37:15;13.73;;;7.38;;
48613;SDS011;34408;51.426;5.444;2023-04-09T13:39:43;11.88;;;7.28;;
48613;SDS011;34408;51.426;5.444;2023-04-09T13:42:12;11.02;;;7.80;;
48613;SDS011;34408;51.426;5.444;2023-04-09T13:44:41;11.52;;;7.53;;
48613;SDS011;34408;51.426;5.444;2023-04-09T13:47:10;10.98;;;7.70;;
48613;SDS011;34408;51.426;5.444;2023-04-09T13:49:39;11.38;;;7.05;;
48613;SDS011;34408;51.426;5.444;2023-04-09T13:52:07;11.27;;;7.57;;
48613;SDS011;34408;51.426;5.444;2023-04-09T13:54:35;10.70;;;6.85;;
48613;SDS011;34408;51.426;5.444;2023-04-09T13:57:03;11.02;;;6.13;;
48613;SDS011;34408;51.426;5.444;2023-04-09T13:59:33;12.35;;;8.77;;
48613;SDS011;34408;51.426;5.444;2023-04-09T14:02:01;12.88;;;9.15;;
48613;SDS011;34408;51.426;5.444;2023-04-09T14:04:29;12.80;;;9.32;;
48613;SDS011;34408;51.426;5.444;2023-04-09T14:06:57;15.55;;;9.98;;
48613;SDS011;34408;51.426;5.444;2023-04-09T14:09:24;13.98;;;9.85;;
48613;SDS011;34408;51.426;5.444;2023-04-09T14:11:52;12.48;;;8.25;;
48613;SDS011;34408;51.426;5.444;2023-04-09T14:14:21;10.40;;;7.55;;
48613;SDS011;34408;51.426;5.444;2023-04-09T14:16:50;16.40;;;7.80;;
48613;SDS011;34408;51.426;5.444;2023-04-09T14:19:18;9.48;;;6.68;;
48613;SDS011;34408;51.426;5.444;2023-04-09T14:21:46;10.13;;;7.40;;
48613;SDS011;34408;51.426;5.444;2023-04-09T14:24:14;13.05;;;6.53;;
48613;SDS011;34408;51.426;5.444;2023-04-09T14:26:41;12.05;;;6.60;;
48613;SDS011;34408;51.426;5.444;2023-04-09T14:29:09;8.18;;;5.78;;
48613;SDS011;34408;51.426;5.444;2023-04-09T14:31:37;9.32;;;5.95;;
48613;SDS011;34408;51.426;5.444;2023-04-09T14:34:09;8.38;;;5.40;;
48613;SDS011;34408;51.426;5.444;2023-04-09T14:36:37;8.25;;;5.75;;